createdAt,value
2022-10-29T00:01:15.099Z,18.76
2022-10-29T00:06:18.136Z,19.20
2022-10-29T00:11:21.667Z,20.08
2022-10-29T00:16:27.884Z,20.35
2022-10-29T00:21:31.142Z,20.54
2022-10-29T00:26:33.631Z,20.68
2022-10-29T00:31:36.268Z,19.89
2022-10-29T00:36:38.984Z,18.69
2022-10-29T00:41:42.337Z,19.71
2022-10-29T00:46:50.176Z,19.86
2022-10-29T00:51:53.124Z,20.24
2022-10-29T00:57:00.999Z,20.34
2022-10-29T01:02:03.841Z,20.31
2022-10-29T01:07:06.852Z,20.28
2022-10-29T01:12:12.447Z,20.23
2022-10-29T01:17:29.543Z,20.32
2022-10-29T01:22:41.287Z,20.35
2022-10-29T01:27:50.007Z,19.99
2022-10-29T01:33:02.374Z,18.20
2022-10-29T01:38:11.130Z,19.04
2022-10-29T01:43:22.379Z,19.65
2022-10-29T01:48:33.499Z,19.94
2022-10-29T01:53:38.056Z,20.20
2022-10-29T01:58:47.130Z,20.31
2022-10-29T02:04:55.292Z,19.22
2022-10-29T02:10:03.768Z,18.78
2022-10-29T02:15:13.298Z,19.63
2022-10-29T02:20:16.781Z,19.82
2022-10-29T02:25:19.363Z,20.01
2022-10-29T02:30:21.922Z,19.90
2022-10-29T02:35:24.529Z,19.99
2022-10-29T02:40:27.287Z,20.07
2022-10-29T02:45:32.274Z,20.07
2022-10-29T02:50:34.866Z,20.05
2022-10-29T02:55:37.403Z,20.14
2022-10-29T03:00:39.883Z,20.11
2022-10-29T03:05:46.551Z,20.21
2022-10-29T03:10:51.688Z,20.23
2022-10-29T03:15:54.364Z,20.19
2022-10-29T03:21:12.685Z,19.60
2022-10-29T03:26:15.269Z,18.34
2022-10-29T03:31:17.839Z,19.37
2022-10-29T03:36:23.459Z,19.83
2022-10-29T03:41:26.152Z,19.96
2022-10-29T03:46:28.694Z,20.09
2022-10-29T03:51:31.510Z,18.94
2022-10-29T03:56:34.125Z,17.85
2022-10-29T04:01:36.803Z,18.97
2022-10-29T04:06:39.522Z,19.51
2022-10-29T04:11:44.362Z,19.71
2022-10-29T04:16:47.146Z,19.79
2022-10-29T04:32:34.576Z,19.69
2022-10-29T04:37:37.115Z,19.70
2022-10-29T04:42:40.365Z,19.69
2022-10-29T04:47:43.032Z,19.74
2022-10-29T04:52:45.590Z,19.74
2022-10-29T04:57:49.943Z,19.39
2022-10-29T05:02:53.952Z,19.53
2022-10-29T05:08:00.126Z,19.54
2022-10-29T05:13:05.311Z,19.67
2022-10-29T05:18:09.661Z,19.77
2022-10-29T05:23:12.533Z,19.85
2022-10-29T05:28:19.539Z,19.83
2022-10-29T05:33:24.381Z,19.81
2022-10-29T05:38:26.956Z,19.67
2022-10-29T05:43:29.726Z,19.60
2022-10-29T05:48:32.204Z,19.50
2022-10-29T05:53:34.716Z,19.48
2022-10-29T05:58:37.511Z,19.59
2022-10-29T06:03:40.181Z,19.63
2022-10-29T06:08:42.808Z,19.70
2022-10-29T06:13:45.308Z,19.81
2022-10-29T06:18:50.993Z,19.79
2022-10-29T06:23:54.172Z,19.93
2022-10-29T06:28:56.725Z,19.85
2022-10-29T06:33:59.221Z,19.95
2022-10-29T06:39:01.797Z,20.14
2022-10-29T06:44:04.443Z,20.13
2022-10-29T06:49:07.098Z,18.33
2022-10-29T06:54:09.789Z,18.65
2022-10-29T06:59:12.292Z,19.82
2022-10-29T07:04:14.881Z,20.16
2022-10-29T07:09:17.375Z,20.37
2022-10-29T07:14:41.789Z,20.48
2022-10-29T07:19:44.312Z,20.60
2022-10-29T07:24:46.823Z,20.77
2022-10-29T07:29:49.524Z,20.16
2022-10-29T07:34:52.142Z,18.82
2022-10-29T07:39:54.688Z,19.65
2022-10-29T07:44:57.234Z,20.24
2022-10-29T07:49:59.756Z,20.53
2022-10-29T07:55:02.765Z,20.66
2022-10-29T08:00:05.881Z,20.79
2022-10-29T08:05:08.840Z,20.97
2022-10-29T08:10:11.324Z,21.13
2022-10-29T08:15:13.968Z,19.70
2022-10-29T08:20:17.947Z,19.71
2022-10-29T08:25:20.801Z,20.46
2022-10-29T08:30:25.539Z,20.80
2022-10-29T08:35:29.016Z,21.10
2022-10-29T08:40:35.572Z,21.44
2022-10-29T08:52:26.579Z,19.62
2022-10-29T08:57:33.838Z,20.81
2022-10-29T09:02:36.456Z,21.33
2022-10-29T09:07:42.846Z,21.47
2022-10-29T09:12:51.263Z,20.93
2022-10-29T09:17:59.842Z,19.82
2022-10-29T09:23:09.421Z,20.85
2022-10-29T09:28:23.957Z,21.29
2022-10-29T09:33:26.983Z,19.99
2022-10-29T09:38:35.700Z,20.62
2022-10-29T09:43:41.302Z,19.53
2022-10-29T09:48:54.714Z,20.21
2022-10-29T09:53:57.352Z,19.66
2022-10-29T09:59:16.271Z,20.14
2022-10-29T10:04:28.333Z,19.80
2022-10-29T10:09:53.433Z,20.42
2022-10-29T10:15:01.934Z,19.41
2022-10-29T10:20:26.382Z,20.60
2022-10-29T10:25:34.700Z,19.48
2022-10-29T10:30:37.385Z,19.10
2022-10-29T10:35:39.939Z,20.51
2022-10-29T10:40:42.937Z,19.63
2022-10-29T10:45:53.749Z,19.31
2022-10-29T10:51:02.116Z,20.21
2022-10-29T10:56:05.065Z,19.27
2022-10-29T11:01:11.746Z,18.78
2022-10-29T11:06:23.043Z,20.03
2022-10-29T11:11:32.346Z,20.18
2022-10-29T11:16:41.359Z,19.69
2022-10-29T11:21:54.203Z,19.42
2022-10-29T11:27:02.491Z,19.19
2022-10-29T11:32:09.641Z,18.85
2022-10-29T11:37:35.310Z,19.87
2022-10-29T11:42:39.214Z,19.88
2022-10-29T11:47:52.029Z,19.42
2022-10-29T11:53:05.317Z,18.96
2022-10-29T11:58:34.254Z,18.57
2022-10-29T12:03:47.344Z,18.36
2022-10-29T12:08:57.484Z,19.73
2022-10-29T12:14:04.873Z,19.86
2022-10-29T12:19:10.808Z,19.18
2022-10-29T12:24:18.358Z,18.85
2022-10-29T12:29:29.848Z,18.71
2022-10-29T12:34:41.832Z,18.64
2022-10-29T12:39:52.823Z,18.62
2022-10-29T12:45:01.203Z,18.42
2022-10-29T12:50:13.392Z,18.20
2022-10-29T12:55:18.069Z,18.05
2022-10-29T13:00:23.524Z,17.93
2022-10-29T13:05:27.047Z,17.76
2022-10-29T13:10:31.564Z,17.58
2022-10-29T13:15:37.070Z,17.43
2022-10-29T13:20:42.773Z,17.32
2022-10-29T13:25:48.631Z,17.21
2022-10-29T13:30:53.765Z,17.02
2022-10-29T13:36:00.211Z,16.83
2022-10-29T13:41:11.699Z,16.65
2022-10-29T13:46:14.183Z,16.53
2022-10-29T13:51:29.994Z,16.41
2022-10-29T13:56:41.505Z,17.35
2022-10-29T14:02:05.249Z,18.85
2022-10-29T14:07:16.908Z,17.70
2022-10-29T14:12:24.814Z,17.00
2022-10-29T14:17:27.628Z,16.51
2022-10-29T14:22:39.272Z,16.16
2022-10-29T14:27:42.579Z,17.35
2022-10-29T14:32:46.327Z,17.32
2022-10-29T14:37:51.705Z,16.47
2022-10-29T14:42:56.447Z,15.95
2022-10-29T14:48:12.243Z,16.92
2022-10-29T14:53:45.899Z,18.85
2022-10-29T14:58:48.742Z,17.63
2022-10-29T15:04:01.116Z,16.54
2022-10-29T15:09:04.094Z,15.93
2022-10-29T15:14:17.410Z,17.52
2022-10-29T15:19:20.067Z,18.59
2022-10-29T15:24:33.155Z,17.14
2022-10-29T15:35:01.138Z,16.64
2022-10-29T15:40:22.055Z,18.59
2022-10-29T15:45:28.344Z,17.96
2022-10-29T15:56:13.732Z,18.44
2022-10-29T16:08:29.808Z,16.01
2022-10-29T16:13:38.494Z,17.38
2022-10-29T16:18:53.208Z,17.86
2022-10-29T16:23:55.972Z,16.16
2022-10-29T16:28:58.517Z,16.20
2022-10-29T16:34:06.655Z,17.76
2022-10-29T16:39:09.354Z,16.37
2022-10-29T16:44:14.394Z,15.44
2022-10-29T16:49:16.872Z,17.14
2022-10-29T16:54:19.415Z,16.68
2022-10-29T16:59:21.973Z,15.35
2022-10-29T17:04:24.576Z,15.74
2022-10-29T17:09:33.843Z,17.28
2022-10-29T17:14:39.252Z,15.96
2022-10-29T17:19:44.915Z,15.07
2022-10-29T17:24:48.473Z,16.72
2022-10-29T17:29:51.001Z,17.27
2022-10-29T17:34:54.240Z,15.74
2022-10-29T17:40:04.861Z,15.79
2022-10-29T17:45:10.757Z,17.16
2022-10-29T17:55:30.884Z,14.86
2022-10-29T18:00:33.380Z,16.68
2022-10-29T18:05:43.313Z,17.10
2022-10-29T18:10:51.429Z,15.40
2022-10-29T18:15:54.974Z,15.45
2022-10-29T18:21:04.988Z,17.37
2022-10-29T18:26:31.664Z,16.67
2022-10-29T18:31:38.162Z,14.97
2022-10-29T18:36:43.196Z,15.29
2022-10-29T18:41:46.292Z,17.20
2022-10-29T18:46:48.769Z,17.21
2022-10-29T18:51:53.265Z,15.38
2022-10-29T18:56:57.405Z,15.18
2022-10-29T19:02:04.685Z,17.06
2022-10-29T19:07:07.340Z,17.18
2022-10-29T19:12:12.715Z,15.36
2022-10-29T19:17:15.309Z,15.91
2022-10-29T19:22:18.827Z,17.13
2022-10-29T19:27:23.816Z,15.67
2022-10-29T19:32:26.690Z,15.15
2022-10-29T19:37:54.381Z,16.94
2022-10-29T19:43:16.720Z,16.60
2022-10-29T19:48:19.374Z,14.76
2022-10-29T19:53:26.239Z,15.24
2022-10-29T19:58:31.183Z,16.96
2022-10-29T20:03:38.633Z,15.85
2022-10-29T20:08:42.266Z,14.47
2022-10-29T20:13:44.990Z,15.97
2022-10-29T20:18:56.115Z,16.48
2022-10-29T20:23:58.824Z,14.73
2022-10-29T20:29:09.771Z,13.68
2022-10-29T20:34:12.443Z,14.14
2022-10-29T20:39:15.754Z,16.23
2022-10-29T20:44:19.804Z,15.34
2022-10-29T20:49:22.267Z,13.99
2022-10-29T20:54:44.783Z,14.28
2022-10-29T21:00:08.304Z,16.38
2022-10-29T21:05:20.863Z,15.23
2022-10-29T21:10:33.125Z,13.93
2022-10-29T21:15:36.634Z,14.16
2022-10-29T21:20:39.339Z,16.11
2022-10-29T21:25:52.463Z,15.36
2022-10-29T21:30:55.077Z,13.80
2022-10-29T21:35:58.109Z,13.36
2022-10-29T21:41:02.210Z,15.43
2022-10-29T21:46:13.261Z,15.88
2022-10-29T21:51:21.231Z,14.15
2022-10-29T21:56:25.799Z,13.42
2022-10-29T22:01:30.017Z,15.42
2022-10-29T22:06:35.483Z,16.16
2022-10-29T22:11:40.946Z,14.41
2022-10-29T22:16:44.226Z,13.52
2022-10-29T22:21:46.827Z,15.26
2022-10-29T22:27:12.013Z,15.71
2022-10-29T22:32:22.997Z,13.99
2022-10-29T22:42:46.080Z,16.05
2022-10-29T22:47:48.547Z,15.01
2022-10-29T22:52:53.146Z,13.57
2022-10-29T22:57:57.942Z,13.95
2022-10-29T23:03:19.662Z,15.96
2022-10-29T23:08:22.198Z,16.00
2022-10-29T23:13:28.242Z,14.23
2022-10-29T23:18:31.349Z,14.28
2022-10-29T23:23:38.358Z,16.08
2022-10-29T23:28:41.295Z,15.52
2022-10-29T23:33:50.350Z,13.95
2022-10-29T23:39:01.310Z,14.07
2022-10-29T23:44:04.767Z,15.89
2022-10-29T23:49:07.285Z,14.95
2022-10-29T23:54:10.012Z,13.93
2022-10-29T23:59:12.910Z,15.49
